Terminal Aerodrome Forecast
Issued by NWS

Home | Current Version | Previous Version | Text Only | Print | Product List | Glossary On
Versions: 1 2 3 4 5 6 7 8 9 10 11 12 13 14 15 16 17
000
FTUS43 KDTX 021000 AAB
TAFMBS
TAF AMD
KMBS 021011Z 0210/0306 16005KT 4SM BR BKN004
     FM021300 16007KT 6SM BR BKN010
     FM021500 16007KT P6SM BKN060 OVC150
     FM022000 16010KT P6SM BKN050 OVC100
     FM030200 17012KT P6SM BKN100 OVC200=

USA.gov is the U.S. government's official web portal to all federal, state and local government web resources and services.